sensor_id;sensor_type;location;lat;lon;timestamp;P1;durP1;ratioP1;P2;durP2;ratioP2
38455;SDS011;24237;50.106;20.014;2023-07-13T00:00:18;16.67;;;9.70;;
38455;SDS011;24237;50.106;20.014;2023-07-13T00:02:44;17.73;;;11.13;;
38455;SDS011;24237;50.106;20.014;2023-07-13T00:05:10;17.08;;;11.40;;
38455;SDS011;24237;50.106;20.014;2023-07-13T00:07:36;17.00;;;10.38;;
38455;SDS011;24237;50.106;20.014;2023-07-13T00:10:02;17.30;;;10.30;;
38455;SDS011;24237;50.106;20.014;2023-07-13T00:12:29;17.98;;;10.80;;
38455;SDS011;24237;50.106;20.014;2023-07-13T00:15:01;14.60;;;10.07;;
38455;SDS011;24237;50.106;20.014;2023-07-13T00:17:42;15.90;;;9.75;;
38455;SDS011;24237;50.106;20.014;2023-07-13T00:20:11;21.48;;;10.70;;
38455;SDS011;24237;50.106;20.014;2023-07-13T00:22:37;16.73;;;10.02;;
38455;SDS011;24237;50.106;20.014;2023-07-13T00:25:03;16.15;;;10.27;;
38455;SDS011;24237;50.106;20.014;2023-07-13T00:27:29;23.27;;;10.88;;
38455;SDS011;24237;50.106;20.014;2023-07-13T00:29:56;19.52;;;10.85;;
38455;SDS011;24237;50.106;20.014;2023-07-13T00:32:22;16.40;;;11.43;;
38455;SDS011;24237;50.106;20.014;2023-07-13T00:34:50;22.50;;;10.45;;
38455;SDS011;24237;50.106;20.014;2023-07-13T00:37:16;15.05;;;9.95;;
38455;SDS011;24237;50.106;20.014;2023-07-13T00:39:42;15.48;;;9.40;;
38455;SDS011;24237;50.106;20.014;2023-07-13T00:42:07;14.98;;;9.60;;
38455;SDS011;24237;50.106;20.014;2023-07-13T00:44:33;16.15;;;8.65;;
38455;SDS011;24237;50.106;20.014;2023-07-13T00:46:58;12.05;;;7.38;;
38455;SDS011;24237;50.106;20.014;2023-07-13T00:49:25;11.93;;;7.90;;
38455;SDS011;24237;50.106;20.014;2023-07-13T00:51:57;11.45;;;7.45;;
38455;SDS011;24237;50.106;20.014;2023-07-13T00:54:28;11.25;;;7.70;;
38455;SDS011;24237;50.106;20.014;2023-07-13T00:57:02;11.60;;;7.82;;
38455;SDS011;24237;50.106;20.014;2023-07-13T00:59:30;12.65;;;7.60;;
38455;SDS011;24237;50.106;20.014;2023-07-13T01:01:59;12.57;;;7.57;;
38455;SDS011;24237;50.106;20.014;2023-07-13T01:04:25;14.90;;;9.73;;
38455;SDS011;24237;50.106;20.014;2023-07-13T01:06:51;11.75;;;8.73;;
38455;SDS011;24237;50.106;20.014;2023-07-13T01:09:17;14.00;;;9.40;;
38455;SDS011;24237;50.106;20.014;2023-07-13T01:11:45;12.60;;;8.95;;
38455;SDS011;24237;50.106;20.014;2023-07-13T01:14:10;11.93;;;7.82;;
38455;SDS011;24237;50.106;20.014;2023-07-13T01:16:36;14.52;;;7.85;;
38455;SDS011;24237;50.106;20.014;2023-07-13T01:19:07;12.80;;;8.63;;
38455;SDS011;24237;50.106;20.014;2023-07-13T01:22:01;13.32;;;8.98;;
38455;SDS011;24237;50.106;20.014;2023-07-13T01:24:28;14.25;;;8.13;;
38455;SDS011;24237;50.106;20.014;2023-07-13T01:26:53;10.68;;;6.95;;
38455;SDS011;24237;50.106;20.014;2023-07-13T01:29:19;11.40;;;6.93;;
38455;SDS011;24237;50.106;20.014;2023-07-13T01:31:45;22.27;;;7.53;;
38455;SDS011;24237;50.106;20.014;2023-07-13T01:34:11;14.52;;;6.63;;
38455;SDS011;24237;50.106;20.014;2023-07-13T01:36:37;11.90;;;7.05;;
38455;SDS011;24237;50.106;20.014;2023-07-13T01:39:02;13.43;;;7.18;;
38455;SDS011;24237;50.106;20.014;2023-07-13T01:41:28;10.45;;;7.00;;
38455;SDS011;24237;50.106;20.014;2023-07-13T01:43:54;12.70;;;6.95;;
38455;SDS011;24237;50.106;20.014;2023-07-13T01:46:19;12.55;;;6.85;;
38455;SDS011;24237;50.106;20.014;2023-07-13T01:48:45;12.48;;;7.88;;
38455;SDS011;24237;50.106;20.014;2023-07-13T01:51:11;10.52;;;7.63;;
38455;SDS011;24237;50.106;20.014;2023-07-13T01:53:37;12.73;;;7.78;;
38455;SDS011;24237;50.106;20.014;2023-07-13T01:56:02;16.30;;;7.75;;
38455;SDS011;24237;50.106;20.014;2023-07-13T01:58:28;12.52;;;7.80;;
38455;SDS011;24237;50.106;20.014;2023-07-13T02:00:54;12.50;;;8.15;;
38455;SDS011;24237;50.106;20.014;2023-07-13T02:03:19;13.13;;;7.78;;
38455;SDS011;24237;50.106;20.014;2023-07-13T02:05:45;13.45;;;8.48;;
38455;SDS011;24237;50.106;20.014;2023-07-13T02:08:10;11.45;;;8.05;;
38455;SDS011;24237;50.106;20.014;2023-07-13T02:10:36;13.05;;;8.35;;
38455;SDS011;24237;50.106;20.014;2023-07-13T02:13:04;18.85;;;9.43;;
38455;SDS011;24237;50.106;20.014;2023-07-13T02:15:31;17.30;;;9.13;;
38455;SDS011;24237;50.106;20.014;2023-07-13T02:17:56;14.82;;;9.63;;
38455;SDS011;24237;50.106;20.014;2023-07-13T02:20:23;14.50;;;9.30;;
38455;SDS011;24237;50.106;20.014;2023-07-13T02:22:49;17.35;;;9.88;;
38455;SDS011;24237;50.106;20.014;2023-07-13T02:25:15;16.70;;;10.93;;
38455;SDS011;24237;50.106;20.014;2023-07-13T02:27:40;18.02;;;10.27;;
38455;SDS011;24237;50.106;20.014;2023-07-13T02:30:06;16.42;;;10.18;;
38455;SDS011;24237;50.106;20.014;2023-07-13T02:32:32;14.18;;;9.77;;
38455;SDS011;24237;50.106;20.014;2023-07-13T02:34:58;11.23;;;8.75;;
38455;SDS011;24237;50.106;20.014;2023-07-13T02:37:24;16.38;;;10.30;;
38455;SDS011;24237;50.106;20.014;2023-07-13T02:39:50;13.55;;;9.75;;
38455;SDS011;24237;50.106;20.014;2023-07-13T02:42:15;14.38;;;8.82;;
38455;SDS011;24237;50.106;20.014;2023-07-13T02:44:41;12.23;;;9.50;;
38455;SDS011;24237;50.106;20.014;2023-07-13T02:47:06;14.88;;;9.55;;
38455;SDS011;24237;50.106;20.014;2023-07-13T02:49:32;14.23;;;9.20;;
38455;SDS011;24237;50.106;20.014;2023-07-13T02:51:58;14.60;;;9.75;;
38455;SDS011;24237;50.106;20.014;2023-07-13T02:54:23;14.30;;;9.55;;
38455;SDS011;24237;50.106;20.014;2023-07-13T02:56:49;11.07;;;8.38;;
38455;SDS011;24237;50.106;20.014;2023-07-13T02:59:15;11.57;;;7.93;;
38455;SDS011;24237;50.106;20.014;2023-07-13T03:01:40;12.38;;;7.95;;
38455;SDS011;24237;50.106;20.014;2023-07-13T03:04:06;18.17;;;9.15;;
38455;SDS011;24237;50.106;20.014;2023-07-13T03:06:32;11.27;;;8.88;;
38455;SDS011;24237;50.106;20.014;2023-07-13T03:08:58;14.20;;;9.07;;
38455;SDS011;24237;50.106;20.014;2023-07-13T03:11:25;14.95;;;8.65;;
38455;SDS011;24237;50.106;20.014;2023-07-13T03:13:51;13.07;;;9.05;;
38455;SDS011;24237;50.106;20.014;2023-07-13T03:16:18;18.50;;;9.85;;
38455;SDS011;24237;50.106;20.014;2023-07-13T03:18:44;16.92;;;9.15;;
38455;SDS011;24237;50.106;20.014;2023-07-13T03:21:10;16.30;;;10.60;;
38455;SDS011;24237;50.106;20.014;2023-07-13T03:23:36;19.33;;;9.77;;
38455;SDS011;24237;50.106;20.014;2023-07-13T03:26:06;14.82;;;9.40;;
38455;SDS011;24237;50.106;20.014;2023-07-13T03:28:33;14.52;;;9.77;;
38455;SDS011;24237;50.106;20.014;2023-07-13T03:31:00;15.90;;;9.93;;
38455;SDS011;24237;50.106;20.014;2023-07-13T03:33:28;13.63;;;9.07;;
38455;SDS011;24237;50.106;20.014;2023-07-13T03:35:54;11.98;;;9.20;;
38455;SDS011;24237;50.106;20.014;2023-07-13T03:38:19;12.38;;;9.60;;
38455;SDS011;24237;50.106;20.014;2023-07-13T03:40:45;12.95;;;9.40;;
38455;SDS011;24237;50.106;20.014;2023-07-13T03:43:10;18.00;;;9.77;;
38455;SDS011;24237;50.106;20.014;2023-07-13T03:45:37;13.57;;;10.02;;
38455;SDS011;24237;50.106;20.014;2023-07-13T03:48:03;17.05;;;10.43;;
38455;SDS011;24237;50.106;20.014;2023-07-13T03:50:30;12.23;;;9.57;;
38455;SDS011;24237;50.106;20.014;2023-07-13T03:52:56;13.70;;;9.65;;
38455;SDS011;24237;50.106;20.014;2023-07-13T03:55:22;14.15;;;9.75;;
38455;SDS011;24237;50.106;20.014;2023-07-13T03:57:52;15.55;;;10.20;;
38455;SDS011;24237;50.106;20.014;2023-07-13T04:00:23;12.95;;;9.63;;
38455;SDS011;24237;50.106;20.014;2023-07-13T04:02:49;18.08;;;9.40;;
38455;SDS011;24237;50.106;20.014;2023-07-13T04:05:15;17.38;;;8.73;;
38455;SDS011;24237;50.106;20.014;2023-07-13T04:07:41;14.68;;;8.43;;
38455;SDS011;24237;50.106;20.014;2023-07-13T04:10:06;16.80;;;9.85;;
38455;SDS011;24237;50.106;20.014;2023-07-13T04:12:32;14.05;;;8.73;;
38455;SDS011;24237;50.106;20.014;2023-07-13T04:14:58;16.02;;;10.43;;
38455;SDS011;24237;50.106;20.014;2023-07-13T04:17:24;12.80;;;8.90;;
38455;SDS011;24237;50.106;20.014;2023-07-13T04:19:49;13.68;;;8.55;;
38455;SDS011;24237;50.106;20.014;2023-07-13T04:22:15;14.05;;;9.07;;
38455;SDS011;24237;50.106;20.014;2023-07-13T04:24:40;16.58;;;9.20;;
38455;SDS011;24237;50.106;20.014;2023-07-13T04:27:06;11.40;;;8.50;;
38455;SDS011;24237;50.106;20.014;2023-07-13T04:29:32;13.82;;;8.23;;
38455;SDS011;24237;50.106;20.014;2023-07-13T04:32:01;11.55;;;7.95;;
38455;SDS011;24237;50.106;20.014;2023-07-13T04:34:29;14.32;;;8.40;;
38455;SDS011;24237;50.106;20.014;2023-07-13T04:36:56;12.07;;;7.75;;
38455;SDS011;24237;50.106;20.014;2023-07-13T04:39:21;14.13;;;7.22;;
38455;SDS011;24237;50.106;20.014;2023-07-13T04:41:47;13.30;;;8.20;;
38455;SDS011;24237;50.106;20.014;2023-07-13T04:44:12;11.82;;;7.75;;
38455;SDS011;24237;50.106;20.014;2023-07-13T04:46:38;15.63;;;8.38;;
38455;SDS011;24237;50.106;20.014;2023-07-13T04:49:03;14.00;;;7.78;;
38455;SDS011;24237;50.106;20.014;2023-07-13T04:51:29;18.08;;;7.82;;
38455;SDS011;24237;50.106;20.014;2023-07-13T04:53:55;22.23;;;9.43;;
38455;SDS011;24237;50.106;20.014;2023-07-13T04:56:20;27.70;;;10.32;;
38455;SDS011;24237;50.106;20.014;2023-07-13T04:58:46;21.65;;;8.30;;
38455;SDS011;24237;50.106;20.014;2023-07-13T05:01:11;19.02;;;8.73;;
38455;SDS011;24237;50.106;20.014;2023-07-13T05:03:38;12.43;;;7.90;;
38455;SDS011;24237;50.106;20.014;2023-07-13T05:06:05;14.48;;;7.82;;
38455;SDS011;24237;50.106;20.014;2023-07-13T05:08:32;15.88;;;8.10;;
38455;SDS011;24237;50.106;20.014;2023-07-13T05:11:02;20.92;;;7.93;;
38455;SDS011;24237;50.106;20.014;2023-07-13T05:13:30;11.45;;;7.88;;
38455;SDS011;24237;50.106;20.014;2023-07-13T05:15:58;15.40;;;8.05;;
38455;SDS011;24237;50.106;20.014;2023-07-13T05:18:25;18.70;;;8.35;;
38455;SDS011;24237;50.106;20.014;2023-07-13T05:20:58;16.48;;;8.15;;
38455;SDS011;24237;50.106;20.014;2023-07-13T05:23:28;13.77;;;7.50;;
38455;SDS011;24237;50.106;20.014;2023-07-13T05:25:55;13.57;;;7.70;;
38455;SDS011;24237;50.106;20.014;2023-07-13T05:28:21;15.52;;;8.02;;
38455;SDS011;24237;50.106;20.014;2023-07-13T05:30:47;15.68;;;8.07;;
38455;SDS011;24237;50.106;20.014;2023-07-13T05:35:39;13.02;;;7.40;;
38455;SDS011;24237;50.106;20.014;2023-07-13T05:38:05;11.20;;;7.15;;
38455;SDS011;24237;50.106;20.014;2023-07-13T05:40:31;7.53;;;6.15;;
38455;SDS011;24237;50.106;20.014;2023-07-13T05:42:56;13.70;;;7.13;;
38455;SDS011;24237;50.106;20.014;2023-07-13T05:45:22;9.00;;;6.88;;
38455;SDS011;24237;50.106;20.014;2023-07-13T05:47:48;10.65;;;5.03;;
38455;SDS011;24237;50.106;20.014;2023-07-13T05:50:13;10.50;;;6.68;;
38455;SDS011;24237;50.106;20.014;2023-07-13T05:52:39;10.38;;;6.22;;
38455;SDS011;24237;50.106;20.014;2023-07-13T05:55:04;9.95;;;5.57;;
38455;SDS011;24237;50.106;20.014;2023-07-13T05:57:30;12.60;;;5.28;;
38455;SDS011;24237;50.106;20.014;2023-07-13T05:59:56;9.18;;;5.15;;
38455;SDS011;24237;50.106;20.014;2023-07-13T06:02:22;8.07;;;5.30;;
38455;SDS011;24237;50.106;20.014;2023-07-13T06:04:48;8.27;;;4.80;;
38455;SDS011;24237;50.106;20.014;2023-07-13T06:07:14;8.90;;;5.57;;
38455;SDS011;24237;50.106;20.014;2023-07-13T06:09:39;13.02;;;4.70;;
38455;SDS011;24237;50.106;20.014;2023-07-13T06:12:05;17.80;;;5.57;;
38455;SDS011;24237;50.106;20.014;2023-07-13T06:14:31;12.70;;;5.63;;
38455;SDS011;24237;50.106;20.014;2023-07-13T06:16:56;15.90;;;5.90;;
38455;SDS011;24237;50.106;20.014;2023-07-13T06:19:22;12.63;;;5.57;;
38455;SDS011;24237;50.106;20.014;2023-07-13T06:21:47;19.75;;;6.20;;
38455;SDS011;24237;50.106;20.014;2023-07-13T06:24:13;12.93;;;6.25;;
38455;SDS011;24237;50.106;20.014;2023-07-13T06:26:38;11.57;;;5.63;;
38455;SDS011;24237;50.106;20.014;2023-07-13T06:29:04;10.95;;;5.95;;
38455;SDS011;24237;50.106;20.014;2023-07-13T06:31:30;17.35;;;5.82;;
38455;SDS011;24237;50.106;20.014;2023-07-13T06:33:56;14.52;;;6.07;;
38455;SDS011;24237;50.106;20.014;2023-07-13T06:36:21;12.35;;;5.70;;
38455;SDS011;24237;50.106;20.014;2023-07-13T06:38:47;14.98;;;5.57;;
38455;SDS011;24237;50.106;20.014;2023-07-13T06:41:12;7.30;;;4.80;;
38455;SDS011;24237;50.106;20.014;2023-07-13T06:43:38;14.02;;;6.40;;
38455;SDS011;24237;50.106;20.014;2023-07-13T06:46:04;7.68;;;4.65;;
38455;SDS011;24237;50.106;20.014;2023-07-13T06:48:29;14.70;;;5.18;;
38455;SDS011;24237;50.106;20.014;2023-07-13T06:50:55;14.38;;;4.65;;
38455;SDS011;24237;50.106;20.014;2023-07-13T06:53:21;10.68;;;4.72;;
38455;SDS011;24237;50.106;20.014;2023-07-13T06:55:47;10.82;;;4.80;;
38455;SDS011;24237;50.106;20.014;2023-07-13T06:58:14;15.93;;;4.75;;
38455;SDS011;24237;50.106;20.014;2023-07-13T07:00:41;17.55;;;4.70;;
38455;SDS011;24237;50.106;20.014;2023-07-13T07:03:07;11.57;;;4.38;;
38455;SDS011;24237;50.106;20.014;2023-07-13T07:05:32;14.75;;;4.38;;
38455;SDS011;24237;50.106;20.014;2023-07-13T07:07:58;17.35;;;7.20;;
38455;SDS011;24237;50.106;20.014;2023-07-13T07:10:24;20.65;;;4.95;;
38455;SDS011;24237;50.106;20.014;2023-07-13T07:12:50;11.50;;;4.78;;
38455;SDS011;24237;50.106;20.014;2023-07-13T07:15:16;9.63;;;3.30;;
38455;SDS011;24237;50.106;20.014;2023-07-13T07:17:42;5.93;;;3.15;;
38455;SDS011;24237;50.106;20.014;2023-07-13T07:20:08;13.32;;;4.15;;
38455;SDS011;24237;50.106;20.014;2023-07-13T07:22:35;13.07;;;3.90;;
38455;SDS011;24237;50.106;20.014;2023-07-13T07:25:00;17.00;;;4.00;;
38455;SDS011;24237;50.106;20.014;2023-07-13T07:27:26;22.25;;;4.82;;
38455;SDS011;24237;50.106;20.014;2023-07-13T07:29:52;7.40;;;4.45;;
38455;SDS011;24237;50.106;20.014;2023-07-13T07:32:18;16.58;;;4.80;;
38455;SDS011;24237;50.106;20.014;2023-07-13T07:34:44;15.75;;;5.53;;
38455;SDS011;24237;50.106;20.014;2023-07-13T07:37:10;10.77;;;3.58;;
38455;SDS011;24237;50.106;20.014;2023-07-13T07:39:38;22.27;;;4.10;;
38455;SDS011;24237;50.106;20.014;2023-07-13T07:42:03;12.38;;;3.70;;
38455;SDS011;24237;50.106;20.014;2023-07-13T07:44:30;18.63;;;3.30;;
38455;SDS011;24237;50.106;20.014;2023-07-13T07:46:56;8.18;;;3.20;;
38455;SDS011;24237;50.106;20.014;2023-07-13T07:49:22;9.85;;;3.75;;
38455;SDS011;24237;50.106;20.014;2023-07-13T07:51:48;5.65;;;3.47;;
38455;SDS011;24237;50.106;20.014;2023-07-13T07:54:14;8.32;;;4.00;;
38455;SDS011;24237;50.106;20.014;2023-07-13T07:56:40;15.00;;;4.20;;
38455;SDS011;24237;50.106;20.014;2023-07-13T07:59:05;17.30;;;4.10;;
38455;SDS011;24237;50.106;20.014;2023-07-13T08:01:31;10.80;;;3.88;;
38455;SDS011;24237;50.106;20.014;2023-07-13T08:03:56;13.30;;;3.75;;
38455;SDS011;24237;50.106;20.014;2023-07-13T08:06:22;8.27;;;4.60;;
38455;SDS011;24237;50.106;20.014;2023-07-13T08:08:48;11.68;;;3.80;;
38455;SDS011;24237;50.106;20.014;2023-07-13T08:11:14;10.55;;;3.30;;
38455;SDS011;24237;50.106;20.014;2023-07-13T08:13:39;10.65;;;3.05;;
38455;SDS011;24237;50.106;20.014;2023-07-13T08:16:05;5.63;;;3.20;;
38455;SDS011;24237;50.106;20.014;2023-07-13T08:18:31;12.68;;;3.50;;
38455;SDS011;24237;50.106;20.014;2023-07-13T08:20:57;7.78;;;2.92;;
38455;SDS011;24237;50.106;20.014;2023-07-13T08:23:23;4.05;;;2.47;;
38455;SDS011;24237;50.106;20.014;2023-07-13T08:25:53;11.32;;;3.10;;
38455;SDS011;24237;50.106;20.014;2023-07-13T08:28:20;11.55;;;2.92;;
38455;SDS011;24237;50.106;20.014;2023-07-13T08:30:46;8.38;;;3.30;;
38455;SDS011;24237;50.106;20.014;2023-07-13T08:33:14;5.65;;;3.38;;
38455;SDS011;24237;50.106;20.014;2023-07-13T08:35:45;5.97;;;3.13;;
38455;SDS011;24237;50.106;20.014;2023-07-13T08:38:12;8.13;;;3.38;;
38455;SDS011;24237;50.106;20.014;2023-07-13T08:40:38;9.15;;;2.80;;
38455;SDS011;24237;50.106;20.014;2023-07-13T08:43:06;5.82;;;2.75;;
38455;SDS011;24237;50.106;20.014;2023-07-13T08:49:01;8.30;;;3.05;;
38455;SDS011;24237;50.106;20.014;2023-07-13T08:51:41;5.57;;;2.67;;
38455;SDS011;24237;50.106;20.014;2023-07-13T08:56:56;14.60;;;3.30;;
38455;SDS011;24237;50.106;20.014;2023-07-13T08:59:25;13.10;;;3.60;;
38455;SDS011;24237;50.106;20.014;2023-07-13T09:10:28;9.55;;;3.33;;
38455;SDS011;24237;50.106;20.014;2023-07-13T09:15:49;15.02;;;3.75;;
38455;SDS011;24237;50.106;20.014;2023-07-13T09:18:38;8.80;;;3.00;;
38455;SDS011;24237;50.106;20.014;2023-07-13T09:23:41;7.82;;;3.33;;
38455;SDS011;24237;50.106;20.014;2023-07-13T09:26:15;9.52;;;3.38;;
38455;SDS011;24237;50.106;20.014;2023-07-13T09:28:47;10.77;;;3.22;;
38455;SDS011;24237;50.106;20.014;2023-07-13T09:31:24;10.45;;;3.28;;
38455;SDS011;24237;50.106;20.014;2023-07-13T09:33:55;14.70;;;4.07;;
38455;SDS011;24237;50.106;20.014;2023-07-13T09:36:26;6.90;;;2.92;;
38455;SDS011;24237;50.106;20.014;2023-07-13T09:44:36;9.60;;;2.88;;
38455;SDS011;24237;50.106;20.014;2023-07-13T09:47:03;18.48;;;5.07;;
38455;SDS011;24237;50.106;20.014;2023-07-13T09:52:10;16.73;;;3.90;;
38455;SDS011;24237;50.106;20.014;2023-07-13T09:54:37;9.63;;;3.92;;
38455;SDS011;24237;50.106;20.014;2023-07-13T09:57:04;10.88;;;2.90;;
38455;SDS011;24237;50.106;20.014;2023-07-13T09:59:41;5.43;;;2.88;;
38455;SDS011;24237;50.106;20.014;2023-07-13T10:05:07;7.90;;;2.88;;
38455;SDS011;24237;50.106;20.014;2023-07-13T10:07:40;21.58;;;3.70;;
38455;SDS011;24237;50.106;20.014;2023-07-13T10:10:15;4.43;;;3.08;;
38455;SDS011;24237;50.106;20.014;2023-07-13T10:12:47;5.10;;;3.13;;
38455;SDS011;24237;50.106;20.014;2023-07-13T10:15:15;23.67;;;7.95;;
38455;SDS011;24237;50.106;20.014;2023-07-13T10:17:43;7.47;;;3.45;;
38455;SDS011;24237;50.106;20.014;2023-07-13T10:20:09;124.40;;;9.30;;
38455;SDS011;24237;50.106;20.014;2023-07-13T10:22:50;23.90;;;4.55;;
38455;SDS011;24237;50.106;20.014;2023-07-13T10:25:23;17.20;;;4.20;;
38455;SDS011;24237;50.106;20.014;2023-07-13T10:27:51;8.68;;;3.80;;
38455;SDS011;24237;50.106;20.014;2023-07-13T10:30:23;12.63;;;4.07;;
38455;SDS011;24237;50.106;20.014;2023-07-13T10:32:53;86.10;;;7.60;;
38455;SDS011;24237;50.106;20.014;2023-07-13T10:35:23;30.08;;;5.53;;
38455;SDS011;24237;50.106;20.014;2023-07-13T10:37:58;17.48;;;4.43;;
38455;SDS011;24237;50.106;20.014;2023-07-13T10:43:37;10.57;;;4.05;;
38455;SDS011;24237;50.106;20.014;2023-07-13T10:46:11;9.68;;;4.18;;
38455;SDS011;24237;50.106;20.014;2023-07-13T10:48:40;10.55;;;4.03;;
38455;SDS011;24237;50.106;20.014;2023-07-13T10:51:07;19.15;;;4.10;;
38455;SDS011;24237;50.106;20.014;2023-07-13T10:53:36;15.75;;;5.28;;
38455;SDS011;24237;50.106;20.014;2023-07-13T11:01:14;14.48;;;4.78;;
38455;SDS011;24237;50.106;20.014;2023-07-13T11:03:49;12.03;;;4.67;;
38455;SDS011;24237;50.106;20.014;2023-07-13T11:08:53;10.48;;;4.95;;
38455;SDS011;24237;50.106;20.014;2023-07-13T11:18:41;10.57;;;6.88;;
38455;SDS011;24237;50.106;20.014;2023-07-13T11:21:14;13.70;;;6.88;;
38455;SDS011;24237;50.106;20.014;2023-07-13T11:23:42;11.98;;;7.07;;
38455;SDS011;24237;50.106;20.014;2023-07-13T11:29:27;17.83;;;7.95;;
38455;SDS011;24237;50.106;20.014;2023-07-13T11:32:03;13.75;;;8.43;;
38455;SDS011;24237;50.106;20.014;2023-07-13T11:34:51;15.45;;;8.77;;
38455;SDS011;24237;50.106;20.014;2023-07-13T11:37:19;13.90;;;8.65;;
38455;SDS011;24237;50.106;20.014;2023-07-13T11:39:46;11.02;;;6.00;;
38455;SDS011;24237;50.106;20.014;2023-07-13T11:44:44;46.75;;;9.88;;
38455;SDS011;24237;50.106;20.014;2023-07-13T11:47:14;24.70;;;6.18;;
38455;SDS011;24237;50.106;20.014;2023-07-13T11:49:47;8.70;;;2.42;;
38455;SDS011;24237;50.106;20.014;2023-07-13T11:52:18;12.52;;;4.00;;
38455;SDS011;24237;50.106;20.014;2023-07-13T11:54:53;10.07;;;4.25;;
38455;SDS011;24237;50.106;20.014;2023-07-13T11:57:23;15.90;;;4.53;;
38455;SDS011;24237;50.106;20.014;2023-07-13T11:59:52;11.35;;;3.88;;
38455;SDS011;24237;50.106;20.014;2023-07-13T12:02:26;5.90;;;3.25;;
38455;SDS011;24237;50.106;20.014;2023-07-13T12:05:02;7.50;;;2.83;;
38455;SDS011;24237;50.106;20.014;2023-07-13T12:07:30;5.03;;;3.40;;
38455;SDS011;24237;50.106;20.014;2023-07-13T12:10:01;13.70;;;3.55;;
38455;SDS011;24237;50.106;20.014;2023-07-13T12:15:21;12.20;;;3.35;;
38455;SDS011;24237;50.106;20.014;2023-07-13T12:17:48;7.55;;;3.63;;
38455;SDS011;24237;50.106;20.014;2023-07-13T12:20:22;8.57;;;3.28;;
38455;SDS011;24237;50.106;20.014;2023-07-13T12:22:51;9.02;;;4.63;;
38455;SDS011;24237;50.106;20.014;2023-07-13T12:25:18;12.70;;;3.60;;
38455;SDS011;24237;50.106;20.014;2023-07-13T12:32:56;4.22;;;2.63;;
38455;SDS011;24237;50.106;20.014;2023-07-13T12:35:23;10.35;;;3.30;;
38455;SDS011;24237;50.106;20.014;2023-07-13T12:37:50;8.85;;;4.55;;
38455;SDS011;24237;50.106;20.014;2023-07-13T12:40:18;10.23;;;3.25;;
38455;SDS011;24237;50.106;20.014;2023-07-13T12:42:47;7.28;;;3.25;;
38455;SDS011;24237;50.106;20.014;2023-07-13T12:47:47;8.20;;;3.25;;
38455;SDS011;24237;50.106;20.014;2023-07-13T12:50:15;11.35;;;3.47;;
38455;SDS011;24237;50.106;20.014;2023-07-13T12:52:50;10.98;;;3.17;;
38455;SDS011;24237;50.106;20.014;2023-07-13T12:55:20;4.75;;;2.28;;
38455;SDS011;24237;50.106;20.014;2023-07-13T13:00:35;10.73;;;3.28;;
38455;SDS011;24237;50.106;20.014;2023-07-13T13:05:58;8.73;;;2.22;;
38455;SDS011;24237;50.106;20.014;2023-07-13T13:08:25;6.10;;;2.72;;
38455;SDS011;24237;50.106;20.014;2023-07-13T13:10:51;5.05;;;2.13;;
38455;SDS011;24237;50.106;20.014;2023-07-13T13:13:16;5.03;;;2.47;;
38455;SDS011;24237;50.106;20.014;2023-07-13T13:15:42;6.15;;;2.17;;
38455;SDS011;24237;50.106;20.014;2023-07-13T13:18:14;4.07;;;1.88;;
38455;SDS011;24237;50.106;20.014;2023-07-13T13:20:44;5.95;;;2.45;;
38455;SDS011;24237;50.106;20.014;2023-07-13T13:23:12;5.18;;;1.80;;
38455;SDS011;24237;50.106;20.014;2023-07-13T13:25:42;3.33;;;2.42;;
38455;SDS011;24237;50.106;20.014;2023-07-13T13:28:12;4.90;;;1.88;;
38455;SDS011;24237;50.106;20.014;2023-07-13T13:30:41;5.38;;;2.50;;
38455;SDS011;24237;50.106;20.014;2023-07-13T13:33:12;6.88;;;2.75;;
38455;SDS011;24237;50.106;20.014;2023-07-13T13:35:40;6.10;;;2.50;;
38455;SDS011;24237;50.106;20.014;2023-07-13T13:38:13;6.22;;;2.50;;
38455;SDS011;24237;50.106;20.014;2023-07-13T13:40:40;8.52;;;2.45;;
38455;SDS011;24237;50.106;20.014;2023-07-13T13:45:44;2.50;;;1.52;;
38455;SDS011;24237;50.106;20.014;2023-07-13T13:48:15;7.38;;;2.38;;
38455;SDS011;24237;50.106;20.014;2023-07-13T13:50:43;2.90;;;1.90;;
38455;SDS011;24237;50.106;20.014;2023-07-13T13:53:12;11.38;;;2.58;;
38455;SDS011;24237;50.106;20.014;2023-07-13T13:55:38;4.70;;;2.75;;
38455;SDS011;24237;50.106;20.014;2023-07-13T13:58:04;3.70;;;2.45;;
38455;SDS011;24237;50.106;20.014;2023-07-13T14:00:30;5.47;;;2.67;;
38455;SDS011;24237;50.106;20.014;2023-07-13T14:02:55;3.25;;;2.30;;
38455;SDS011;24237;50.106;20.014;2023-07-13T14:05:23;6.07;;;2.55;;
38455;SDS011;24237;50.106;20.014;2023-07-13T14:07:53;6.20;;;2.25;;
38455;SDS011;24237;50.106;20.014;2023-07-13T14:10:20;3.72;;;2.40;;
38455;SDS011;24237;50.106;20.014;2023-07-13T14:12:46;4.80;;;2.20;;
38455;SDS011;24237;50.106;20.014;2023-07-13T14:15:25;16.75;;;2.85;;
38455;SDS011;24237;50.106;20.014;2023-07-13T14:17:53;3.60;;;2.40;;
38455;SDS011;24237;50.106;20.014;2023-07-13T14:20:20;4.03;;;2.45;;
38455;SDS011;24237;50.106;20.014;2023-07-13T14:22:48;3.38;;;2.35;;
38455;SDS011;24237;50.106;20.014;2023-07-13T14:25:15;5.70;;;2.60;;
38455;SDS011;24237;50.106;20.014;2023-07-13T14:27:42;5.78;;;2.80;;
38455;SDS011;24237;50.106;20.014;2023-07-13T14:30:13;8.38;;;2.78;;
38455;SDS011;24237;50.106;20.014;2023-07-13T14:32:46;3.57;;;2.63;;
38455;SDS011;24237;50.106;20.014;2023-07-13T14:35:14;4.55;;;2.70;;
38455;SDS011;24237;50.106;20.014;2023-07-13T14:37:41;3.42;;;2.75;;
38455;SDS011;24237;50.106;20.014;2023-07-13T14:40:15;4.60;;;2.97;;
38455;SDS011;24237;50.106;20.014;2023-07-13T14:42:42;6.53;;;3.05;;
38455;SDS011;24237;50.106;20.014;2023-07-13T14:45:15;9.25;;;2.92;;
38455;SDS011;24237;50.106;20.014;2023-07-13T14:47:42;6.43;;;2.60;;
38455;SDS011;24237;50.106;20.014;2023-07-13T14:50:18;6.40;;;3.53;;
38455;SDS011;24237;50.106;20.014;2023-07-13T14:52:46;5.50;;;3.08;;
38455;SDS011;24237;50.106;20.014;2023-07-13T14:55:16;6.63;;;2.60;;
38455;SDS011;24237;50.106;20.014;2023-07-13T14:57:43;4.25;;;2.35;;
38455;SDS011;24237;50.106;20.014;2023-07-13T15:00:19;4.47;;;2.47;;
38455;SDS011;24237;50.106;20.014;2023-07-13T15:02:54;6.07;;;2.75;;
38455;SDS011;24237;50.106;20.014;2023-07-13T15:05:24;3.85;;;2.70;;
38455;SDS011;24237;50.106;20.014;2023-07-13T15:07:52;4.40;;;2.45;;
38455;SDS011;24237;50.106;20.014;2023-07-13T15:10:19;9.48;;;3.03;;
38455;SDS011;24237;50.106;20.014;2023-07-13T15:12:46;7.15;;;3.10;;
38455;SDS011;24237;50.106;20.014;2023-07-13T15:15:12;6.38;;;3.08;;
38455;SDS011;24237;50.106;20.014;2023-07-13T15:17:40;4.55;;;2.47;;
38455;SDS011;24237;50.106;20.014;2023-07-13T15:20:25;3.92;;;2.45;;
38455;SDS011;24237;50.106;20.014;2023-07-13T15:23:00;5.50;;;3.03;;
38455;SDS011;24237;50.106;20.014;2023-07-13T15:25:26;5.18;;;3.10;;
38455;SDS011;24237;50.106;20.014;2023-07-13T15:27:56;6.88;;;2.47;;
38455;SDS011;24237;50.106;20.014;2023-07-13T15:30:24;6.93;;;3.15;;
38455;SDS011;24237;50.106;20.014;2023-07-13T15:32:51;8.43;;;2.83;;
38455;SDS011;24237;50.106;20.014;2023-07-13T15:35:18;5.45;;;2.88;;
38455;SDS011;24237;50.106;20.014;2023-07-13T15:37:46;6.78;;;3.92;;
38455;SDS011;24237;50.106;20.014;2023-07-13T15:40:12;9.93;;;3.88;;
38455;SDS011;24237;50.106;20.014;2023-07-13T15:42:39;6.45;;;4.03;;
38455;SDS011;24237;50.106;20.014;2023-07-13T15:45:14;5.13;;;3.95;;